| time (UTC) | temp C | wind direction | speed KPH | gust KPH | rain 1hr cm | rain 24hr cm | rain mn cm | humidity % | barometer mb |
| 20260506134552 | 11 | 34 | 0.0 | 1.6 | 0.00 | 0.00 | 0.00 | 95 | 1020.2 |
| 20260506133102 | 11 | 34 | 0.0 | 1.6 | 0.00 | 0.00 | 0.00 | 95 | 1020.1 |
| 20260506131548 | 11 | 31 | 0.0 | 0.0 | 0.00 | 0.00 | 0.00 | 95 | 1020.1 |
| 20260506130047 | 11 | 30 | 0.0 | 0.0 | 0.00 | 0.00 | 0.00 | 95 | 1019.9 |
| 20260506124544 | 11 | 34 | 0.0 | 0.0 | 0.00 | 0.00 | 0.00 | 95 | 1019.8 |
| 20260506123044 | 11 | 31 | 0.0 | 0.0 | 0.00 | 0.00 | 0.00 | 95 | 1019.8 |
| 20260506121543 | 11 | 34 | 0.0 | 0.0 | 0.00 | 0.00 | 0.00 | 95 | 1019.6 |
| 20260506120042 | 11 | 35 | 0.0 | 0.0 | 0.00 | 0.00 | 0.00 | 95 | 1019.7 |
| 20260506114546 | 11 | 31 | 0.0 | 0.0 | 0.00 | 0.00 | 0.00 | 94 | 1019.5 |
| 20260506113040 | 11 | 34 | 0.0 | 0.0 | 0.00 | 0.00 | 0.00 | 94 | 1019.5 |
| 20260506111538 | 11 | 29 | 0.0 | 0.0 | 0.00 | 0.00 | 0.00 | 94 | 1019.4 |
| 20260506110042 | 11 | 26 | 0.0 | 0.0 | 0.00 | 0.00 | 0.00 | 94 | 1019.2 |
| 20260506104559 | 11 | 32 | 0.0 | 0.0 | 0.00 | 0.00 | 0.00 | 94 | 1019.2 |
| 20260506103039 | 11 | 34 | 0.0 | 0.0 | 0.00 | 0.00 | 0.00 | 94 | 1019.1 |
| 20260506101533 | 11 | 30 | 0.0 | 0.0 | 0.00 | 0.00 | 0.00 | 94 | 1019.0 |
| 20260506100040 | 11 | 34 | 0.0 | 1.6 | 0.00 | 0.00 | 0.00 | 94 | 1018.8 |
| 20260506094534 | 11 | 32 | 0.0 | 0.0 | 0.00 | 0.03 | 0.00 | 93 | 1018.8 |
| 20260506093032 | 11 | 34 | 0.0 | 1.6 | 0.00 | 0.03 | 0.00 | 93 | 1018.8 |
| 20260506091530 | 11 | 32 | 0.0 | 1.6 | 0.00 | 0.03 | 0.00 | 93 | 1018.9 |
| 20260506090040 | 11 | 25 | 0.0 | 1.6 | 0.00 | 0.03 | 0.00 | 92 | 1018.8 |
| 20260506084528 | 11 | 34 | 0.0 | 1.6 | 0.00 | 0.05 | 0.00 | 92 | 1018.9 |
| 20260506083037 | 11 | 34 | 0.0 | 0.0 | 0.00 | 0.05 | 0.00 | 92 | 1019.0 |
| 20260506081524 | 11 | 36 | 0.0 | 0.0 | 0.00 | 0.05 | 0.00 | 92 | 1018.8 |
| 20260506073022 | 11 | 35 | 1.6 | 3.2 | 0.00 | 0.08 | 0.00 | 91 | 1018.5 |
| 20260506071521 | 11 | 31 | 1.6 | 4.8 | 0.00 | 0.08 | 0.00 | 91 | 1018.4 |
| 20260506061511 | 11 | 34 | 0.0 | 1.6 | 0.00 | 0.15 | 0.08 | 90 | 1018.0 |
| 20260506044505 | 11 | 32 | 0.0 | 6.4 | 0.00 | 0.18 | 0.08 | 89 | 1017.3 |
| 20260506043101 | 12 | 35 | 3.2 | 11.3 | 0.00 | 0.18 | 0.08 | 88 | 1017.1 |
| 20260506041600 | 12 | 29 | 3.2 | 9.7 | 0.00 | 0.18 | 0.08 | 87 | 1016.9 |
| 20260506041501 | 12 | 27 | 3.2 | 8.0 | 0.00 | 0.18 | 0.08 | 87 | 1016.9 |
| 20260506040058 | 12 | 35 | 3.2 | 8.0 | 0.00 | 0.18 | 0.08 | 85 | 1016.7 |
| 20260506034600 | 13 | 34 | 4.8 | 8.0 | 0.00 | 0.18 | 0.08 | 84 | 1016.6 |
| 20260506033055 | 13 | 32 | 3.2 | 8.0 | 0.00 | 0.18 | 0.08 | 82 | 1016.3 |
| 20260506031556 | 14 | 35 | 1.6 | 4.8 | 0.00 | 0.18 | 0.08 | 81 | 1016.0 |
| 20260506030051 | 15 | 32 | 0.0 | 4.8 | 0.00 | 0.18 | 0.08 | 78 | 1015.8 |
| 20260506024550 | 15 | 32 | 1.6 | 6.4 | 0.00 | 0.23 | 0.08 | 75 | 1015.7 |
| 20260506023050 | 16 | 34 | 0.0 | 3.2 | 0.00 | 0.23 | 0.08 | 74 | 1015.5 |
| 20260506021556 | 16 | 32 | 1.6 | 9.7 | 0.00 | 0.23 | 0.08 | 74 | 1015.4 |
| 20260506020047 | 15 | 31 | 1.6 | 8.0 | 0.00 | 0.23 | 0.08 | 76 | 1015.3 |
| 20260506014547 | 15 | 31 | 3.2 | 11.3 | 0.00 | 0.33 | 0.08 | 78 | 1015.2 |
| 20260506013047 | 15 | 34 | 1.6 | 11.3 | 0.00 | 0.33 | 0.08 | 78 | 1015.2 |
| 20260506011550 | 15 | 35 | 4.8 | 11.3 | 0.00 | 0.33 | 0.08 | 77 | 1015.1 |
| 20260506010051 | 15 | 31 | 3.2 | 11.3 | 0.00 | 0.33 | 0.08 | 77 | 1015.1 |
| 20260506004544 | 15 | 32 | 3.2 | 16.1 | 0.00 | 0.41 | 0.08 | 77 | 1015.2 |
| 20260506003044 | 15 | 37 | 8.0 | 17.7 | 0.00 | 0.41 | 0.08 | 75 | 1015.1 |
| 20260506001543 | 16 | 31 | 3.2 | 16.1 | 0.00 | 0.41 | 0.08 | 77 | 1015.0 |
| 20260506000042 | 16 | 35 | 4.8 | 16.1 | 0.00 | 0.41 | 0.08 | 76 | 1015.0 |
| 20260505234604 | 16 | 34 | 6.4 | 17.7 | 0.00 | 0.51 | 0.08 | 76 | 1014.9 |
| 20260505233047 | 16 | 35 | 8.0 | 17.7 | 0.00 | 0.51 | 0.08 | 75 | 1015.0 |
| 20260505231540 | 16 | 36 | 6.4 | 16.1 | 0.00 | 0.51 | 0.08 | 75 | 1014.9 |
| 20260505230042 | 17 | 34 | 6.4 | 14.5 | 0.00 | 0.51 | 0.08 | 74 | 1015.0 |
| 20260505224540 | 17 | 35 | 4.8 | 19.3 | 0.00 | 0.61 | 0.08 | 74 | 1015.0 |
| 20260505223042 | 18 | 32 | 1.6 | 6.4 | 0.00 | 0.61 | 0.08 | 75 | 1015.0 |
| 20260505221536 | 17 | 28 | 4.8 | 11.3 | 0.00 | 0.61 | 0.08 | 73 | 1015.0 |
| 20260505220035 | 17 | 31 | 4.8 | 14.5 | 0.00 | 0.61 | 0.08 | 75 | 1015.1 |
| 20260505214544 | 17 | 28 | 3.2 | 11.3 | 0.00 | 0.61 | 0.08 | 76 | 1015.2 |
| 20260505213033 | 17 | 32 | 3.2 | 8.0 | 0.00 | 0.61 | 0.08 | 76 | 1015.4 |
| 20260505211541 | 17 | 35 | 4.8 | 9.7 | 0.00 | 0.61 | 0.08 | 74 | 1015.4 |
| 20260505210032 | 17 | 30 | 3.2 | 6.4 | 0.00 | 0.61 | 0.08 | 74 | 1015.4 |
| 20260505204534 | 17 | 31 | 1.6 | 6.4 | 0.00 | 0.61 | 0.08 | 74 | 1015.5 |
| 20260505203041 | 17 | 30 | 1.6 | 6.4 | 0.00 | 0.61 | 0.08 | 74 | 1015.6 |
| 20260505201527 | 16 | 31 | 3.2 | 8.0 | 0.00 | 0.61 | 0.08 | 75 | 1015.6 |
| 20260505200027 | 16 | 28 | 1.6 | 9.7 | 0.00 | 0.61 | 0.08 | 77 | 1015.7 |
| 20260505194526 | 16 | 34 | 3.2 | 11.3 | 0.00 | 0.61 | 0.08 | 78 | 1015.7 |
| 20260505193025 | 16 | 32 | 1.6 | 8.0 | 0.00 | 0.61 | 0.08 | 77 | 1015.8 |
| 20260505191524 | 16 | 32 | 3.2 | 11.3 | 0.00 | 0.61 | 0.08 | 79 | 1015.8 |
| 20260505190025 | 16 | 32 | 6.4 | 14.5 | 0.00 | 0.61 | 0.08 | 79 | 1015.7 |
| 20260505184526 | 15 | 32 | 4.8 | 11.3 | 0.00 | 0.61 | 0.08 | 79 | 1015.7 |
| 20260505183025 | 16 | 24 | 0.0 | 4.8 | 0.00 | 0.61 | 0.08 | 75 | 1015.7 |
| 20260505181516 | 16 | 32 | 1.6 | 4.8 | 0.00 | 0.61 | 0.08 | 75 | 1015.7 |
| 20260505180012 | 15 | 31 | 0.0 | 4.8 | 0.00 | 0.61 | 0.08 | 78 | 1015.6 |
| 20260505174509 | 15 | 28 | 1.6 | 6.4 | 0.00 | 0.61 | 0.08 | 79 | 1015.5 |
| 20260505173007 | 15 | 35 | 1.6 | 6.4 | 0.00 | 0.61 | 0.08 | 78 | 1015.3 |
| 20260505171506 | 15 | 32 | 0.0 | 6.4 | 0.00 | 0.61 | 0.08 | 79 | 1015.3 |
| 20260505170007 | 14 | 26 | 3.2 | 8.0 | 0.00 | 0.61 | 0.08 | 80 | 1015.4 |
| 20260505164502 | 14 | 31 | 3.2 | 8.0 | 0.00 | 0.61 | 0.08 | 80 | 1015.4 |
| 20260505163058 | 14 | 34 | 1.6 | 8.0 | 0.00 | 0.61 | 0.08 | 82 | 1015.2 |
| 20260505161556 | 13 | 30 | 1.6 | 9.7 | 0.00 | 0.61 | 0.08 | 84 | 1015.2 |
| 20260505153053 | 13 | 32 | 4.8 | 11.3 | 0.00 | 0.61 | 0.08 | 88 | 1014.9 |
| 20260505151548 | 12 | 32 | 4.8 | 12.9 | 0.00 | 0.61 | 0.08 | 91 | 1014.9 |